Portada
METAR-TAF:

METAR-TAF

Aeroports :

Trujillo, Perú

latitud: 08-06S, longitud: 079-02W, altitud: 26 m

Observació

L'informe es va fer fa 43 minuts, a les 13:00 UTC
Vent 8 kt del Sud-Est
Temperatura 18°C
Humitat 88%
Pressió 1015 hPa
Visibilitat: 8000 m

METAR: SPRU 021300Z 14008KT 8000 NSC 18/16 Q1015 RMK BR QUAD N PP000

Hora: 08:43 (13:43 UTC)

Pronòstic

L'informe es va fer fa 43 minuts, a les 13:00 UTC
Pronòstic vàlid del 02 a les 13 UTC al 03 a les 12 UTC
Vent 8 kt del Sud/Sud-Est
Visibilitat: 8000 m
Evolucionant progressivament
l' 02 a les 15 UTC al 02 a les 17 UTC
Vent 12 kt del Sud
Visibilitat: 9000 m
Evolucionant progressivament
l' 02 a les 22 UTC al 03 a les 01 UTC
Vent 6 kt del Sud/Sud-Est
Visibilitat: 6000 m
Cel ennuvolat a una alçada de 1200 ft

TAF: SPRU 021300Z 0213/0312 16008KT 8000 NSC TX19/0219Z TN15/0311Z BECMG 0215/0217 17012KT 9000 NSC BECMG 0222/0301 15006KT 6000 BKN012

Observacions i pronòstics meteorològics de més de 4000 aeroports (METAR i TAF).

Les estacions disponibles són els punts grocs i vermells al mapa.

Posi el ratolí al punt desitjat per veure el nom de l'estació.

Feu clic per veure les observacions i els pronòstics meteorològics.

Per canviar el mapa: feu clic els botons verds amb una creu de color negre per apropar; al botó verd amb un guió per allunyar la imatge; o en les fletxes verdes per a mapes adjacents.


METAR-TAF: